Time;durP1;ratioP1;P1;durP2;ratioP2;P2;SDS_P1;SDS_P2;PMS_P1;PMS_P2;Temp;Humidity;BMP_temperature;BMP_pressure;BME280_temperature;BME280_humidity;BME280_pressure;Samples;Min_cycle;Max_cycle;Signal;HPM_P1;HPM_P2
2021/12/17 00:07:11;;;;;;;47.80;24.80;;;;;;;-0.50;86.07;98179.22;108401;1273;59776;-71
2021/12/17 00:09:42;;;;;;;48.80;27.20;;;;;;;-0.48;85.73;98180.38;108303;1274;59696;-71
2021/12/17 00:12:16;;;;;;;49.80;29.00;;;;;;;-0.48;85.97;98181.92;108296;1273;70848;-70
2021/12/17 00:14:48;;;;;;;55.10;29.80;;;;;;;-0.46;86.32;98183.09;108230;1273;68644;-70
2021/12/17 00:17:24;;;;;;;63.00;32.10;;;;;;;-0.45;86.33;98172.27;108381;1273;68432;-69
2021/12/17 00:48:25;;;;;;;32.50;18.10;;;;;;;-0.64;87.75;98165.23;108194;1269;59735;-69
2021/12/17 00:53:41;;;;;;;29.60;17.60;;;;;;;-0.56;87.44;98160.12;108385;1273;71683;-69
2021/12/17 00:56:11;;;;;;;23.40;13.90;;;;;;;-0.52;87.24;98159.02;108129;1274;68515;-70
2021/12/17 00:58:40;;;;;;;36.40;18.60;;;;;;;-0.50;87.35;98158.33;108354;1269;69422;-70
2021/12/17 01:01:10;;;;;;;28.20;16.20;;;;;;;-0.48;87.42;98155.73;108067;1273;59783;-69
2021/12/17 01:03:40;;;;;;;27.30;13.90;;;;;;;-0.45;86.98;98153.45;108094;1273;59744;-68
2021/12/17 01:06:10;;;;;;;22.60;11.70;;;;;;;-0.43;86.79;98150.66;108098;1274;71615;-71
2021/12/17 01:08:41;;;;;;;26.00;13.40;;;;;;;-0.40;86.62;98145.83;108130;1274;68627;-69
2021/12/17 01:11:14;;;;;;;24.70;12.90;;;;;;;-0.39;86.89;98144.09;108148;1275;69252;-73
2021/12/17 01:13:50;;;;;;;46.20;20.50;;;;;;;-0.39;86.91;98146.67;108176;1273;59709;-69
2021/12/17 01:16:43;;;;;;;26.80;14.20;;;;;;;-0.39;87.03;98143.92;108248;1272;59642;-69
2021/12/17 01:35:30;;;;;;;27.50;13.20;;;;;;;-0.46;87.98;98131.02;108131;1273;71472;-72
2021/12/17 01:41:39;;;;;;;39.90;18.90;;;;;;;-0.44;88.04;98128.59;108136;1269;69423;-72
2021/12/17 01:44:06;;;;;;;49.20;21.70;;;;;;;-0.48;88.31;98123.52;108091;1272;59760;-70
2021/12/17 01:46:38;;;;;;;35.80;18.90;;;;;;;-0.51;88.16;98122.89;108151;1273;59703;-72
2021/12/17 01:49:28;;;;;;;36.80;18.00;;;;;;;-0.49;88.35;98123.04;108174;1272;71542;-70
2021/12/17 02:00:48;;;;;;;38.90;18.30;;;;;;;-0.42;88.42;98126.15;108218;1272;59630;-75
2021/12/17 02:03:18;;;;;;;43.70;21.90;;;;;;;-0.47;88.72;98126.41;108138;1272;71361;-74
2021/12/17 02:05:48;;;;;;;52.20;22.90;;;;;;;-0.50;88.75;98121.85;108189;1273;68740;-72
2021/12/17 02:08:19;;;;;;;;;;;;;;;-0.56;89.14;98123.30;108277;1272;69268;-70
2021/12/17 02:33:20;;;;;;;17.00;10.50;;;;;;;-0.48;88.90;98127.30;107674;1279;67249;-73
2021/12/17 02:35:49;;;;;;;30.80;15.60;;;;;;;-0.44;88.40;98120.73;108065;1272;68522;-69
2021/12/17 02:38:20;;;;;;;34.40;17.10;;;;;;;-0.40;87.83;98119.96;108397;1273;59764;-70
2021/12/17 02:47:06;;;;;;;38.50;18.60;;;;;;;-0.38;87.44;98102.96;108300;1273;68440;-71
2021/12/17 02:49:38;;;;;;;31.30;17.50;;;;;;;-0.38;87.41;98104.51;108147;1275;68467;-70
2021/12/17 02:52:08;;;;;;;30.30;16.70;;;;;;;-0.38;87.41;98102.44;108139;1273;59693;-72
2021/12/17 02:54:38;;;;;;;;;;;;;;;-0.37;87.38;98097.48;108290;1270;59713;-70
2021/12/17 02:57:11;;;;;;;55.80;26.30;;;;;;;-0.39;88.08;98089.43;108182;1272;70742;-69
2021/12/17 02:59:40;;;;;;;30.70;14.70;;;;;;;-0.40;88.22;98090.15;108210;1273;68650;-72
2021/12/17 03:02:12;;;;;;;54.00;23.70;;;;;;;-0.42;88.37;98082.48;108263;1273;68624;-75
2021/12/17 03:04:42;;;;;;;42.30;20.80;;;;;;;-0.44;88.81;98080.13;108104;1271;59732;-73
2021/12/17 03:07:13;;;;;;;128.40;25.00;;;;;;;-0.46;89.13;98075.70;108382;1273;59707;-70
2021/12/17 03:10:04;;;;;;;82.70;22.90;;;;;;;-0.51;89.78;98067.58;108336;1273;70754;-74
2021/12/17 03:12:42;;;;;;;281.00;34.90;;;;;;;-0.56;90.10;98062.02;108342;1272;67809;-69
2021/12/17 03:26:08;;;;;;;94.60;21.20;;;;;;;-0.71;91.55;98043.09;108253;1269;67879;-71
2021/12/17 03:28:46;;;;;;;134.80;23.10;;;;;;;-0.69;91.69;98037.44;108122;1272;69360;-70
2021/12/17 03:31:18;;;;;;;142.90;25.30;;;;;;;-0.68;91.77;98035.37;108094;1273;59754;-69
2021/12/17 03:33:52;;;;;;;120.50;22.50;;;;;;;-0.69;91.84;98032.13;107885;1276;59620;-69
2021/12/17 03:36:22;;;;;;;74.20;20.40;;;;;;;-0.69;91.87;98031.77;108012;1272;71610;-70
2021/12/17 03:38:51;;;;;;;116.10;21.30;;;;;;;-0.68;91.96;98028.35;108158;1272;68764;-69
2021/12/17 03:41:34;;;;;;;58.00;17.40;;;;;;;-0.68;91.97;98024.59;108109;1274;68436;-70
2021/12/17 03:44:06;;;;;;;164.90;27.50;;;;;;;-0.69;92.00;98024.77;108201;1273;59713;-70
2021/12/17 03:47:10;;;;;;;298.00;38.60;;;;;;;-0.71;92.18;98019.64;107675;1280;59780;-72
2021/12/17 03:49:59;;;;;;;99.30;21.70;;;;;;;-0.73;92.24;98014.05;108012;1273;70675;-68
2021/12/17 03:52:29;;;;;;;223.90;31.90;;;;;;;-0.74;92.48;98016.13;108294;1273;68546;-71
2021/12/17 03:54:58;;;;;;;146.80;23.30;;;;;;;-0.76;92.59;98013.91;108167;1272;69415;-68
2021/12/17 03:57:28;;;;;;;181.00;29.60;;;;;;;-0.77;92.77;98013.94;107995;1275;59728;-68
2021/12/17 03:59:57;;;;;;;176.60;28.60;;;;;;;-0.78;92.95;98019.45;108151;1273;59857;-68
2021/12/17 04:02:33;;;;;;;46.90;14.10;;;;;;;-0.75;93.02;98021.63;108301;1269;71498;-68
2021/12/17 04:05:04;;;;;;;140.50;26.10;;;;;;;-0.74;93.04;98016.97;108356;1269;68644;-69
2021/12/17 04:07:34;;;;;;;91.30;22.50;;;;;;;-0.74;93.08;98015.25;108407;1272;68438;-68
2021/12/17 04:10:09;;;;;;;133.30;24.20;;;;;;;-0.74;93.08;98010.96;108365;1269;59683;-70
2021/12/17 04:15:16;;;;;;;34.90;13.80;;;;;;;-0.69;93.15;98010.55;108106;1274;71858;-67
2021/12/17 04:17:52;;;;;;;57.50;16.50;;;;;;;-0.64;93.10;98013.70;108135;1272;68774;-69
2021/12/17 04:20:22;;;;;;;27.70;11.60;;;;;;;-0.61;93.02;98010.73;108076;1275;69810;-71
2021/12/17 04:22:52;;;;;;;25.00;10.20;;;;;;;-0.56;92.88;98012.52;108018;1275;59687;-70
2021/12/17 04:25:22;;;;;;;23.50;11.60;;;;;;;-0.50;92.86;98017.40;108145;1272;59757;-71
2021/12/17 04:27:51;;;;;;;20.40;9.10;;;;;;;-0.46;92.78;98016.97;108213;1273;71089;-70
2021/12/17 04:30:21;;;;;;;24.70;12.30;;;;;;;-0.40;92.63;98017.90;108189;1272;68493;-67
2021/12/17 04:32:53;;;;;;;17.20;8.40;;;;;;;-0.36;92.49;98017.29;108215;1274;68559;-69
2021/12/17 04:35:23;;;;;;;21.20;10.00;;;;;;;-0.32;92.28;98019.96;108281;1273;59697;-73
2021/12/17 04:37:53;;;;;;;;;;;;;;;-0.30;92.07;98017.35;108110;1271;59758;-72
2021/12/17 04:40:24;;;;;;;84.10;18.20;;;;;;;-0.31;91.86;98017.04;108067;1272;71387;-74
2021/12/17 04:45:38;;;;;;;43.40;16.40;;;;;;;-0.39;91.87;98015.79;108041;1274;69351;-71
2021/12/17 04:59:28;;;;;;;191.30;30.70;;;;;;;-0.56;92.42;97997.46;108006;1273;68823;-73
2021/12/17 05:02:01;;;;;;;154.30;28.50;;;;;;;-0.60;92.71;97996.52;108120;1272;59780;-71
2021/12/17 05:04:38;;;;;;;156.30;29.00;;;;;;;-0.60;92.70;97995.66;108031;1272;59752;-74
2021/12/17 05:07:08;;;;;;;156.60;28.20;;;;;;;-0.63;92.89;97995.21;108027;1275;71404;-74
2021/12/17 05:20:41;;;;;;;83.50;21.00;;;;;;;-0.63;93.24;98006.32;108136;1272;70830;-73
2021/12/17 05:23:10;;;;;;;34.10;13.50;;;;;;;-0.63;93.21;98010.27;108333;1269;68641;-72
2021/12/17 05:25:39;;;;;;;79.90;21.40;;;;;;;-0.59;93.18;98011.39;108117;1269;69432;-69
2021/12/17 05:28:09;;;;;;;127.60;22.10;;;;;;;-0.57;93.16;98005.70;108103;1272;59744;-70
2021/12/17 05:30:45;;;;;;;128.10;24.00;;;;;;;-0.55;93.08;98004.98;108367;1273;59671;-73
2021/12/17 05:33:20;;;;;;;34.20;15.60;;;;;;;-0.54;93.05;98005.65;108274;1272;72220;-72
2021/12/17 05:35:50;;;;;;;63.90;20.00;;;;;;;-0.52;93.03;98004.40;108171;1273;68253;-73
2021/12/17 05:38:22;;;;;;;50.90;20.10;;;;;;;-0.50;92.99;98011.06;108261;1270;69444;-71
2021/12/17 05:40:53;;;;;;;129.10;23.90;;;;;;;-0.49;92.96;98009.33;108291;1273;59739;-67
2021/12/17 05:43:22;;;;;;;;;;;;;;;-0.48;92.91;98011.54;108292;1272;59716;-68
2021/12/17 05:48:27;;;;;;;26.60;12.00;;;;;;;-0.42;92.89;98006.10;108123;1272;67919;-70
2021/12/17 05:50:59;;;;;;;51.00;15.80;;;;;;;-0.37;92.76;98001.73;108245;1269;69454;-74
2021/12/17 05:53:29;;;;;;;27.10;12.20;;;;;;;-0.33;92.51;97998.40;108121;1272;59725;-70
2021/12/17 05:56:01;;;;;;;22.90;11.10;;;;;;;-0.31;92.28;97993.55;108081;1270;59687;-66
2021/12/17 05:58:40;;;;;;;;;;;;;;;-0.29;92.06;97991.27;108047;1269;71689;-69
2021/12/17 06:01:09;;;;;;;42.70;14.80;;;;;;;-0.31;92.14;97987.91;108299;1269;66862;-73
2021/12/17 06:03:45;;;;;;;49.80;15.50;;;;;;;-0.30;92.01;97985.14;108035;1269;69506;-70
2021/12/17 06:06:32;;;;;;;35.10;14.70;;;;;;;-0.29;91.93;97985.29;108252;1269;59696;-71
2021/12/17 06:09:08;;;;;;;27.20;12.70;;;;;;;-0.27;91.88;97990.39;108300;1269;59694;-68
2021/12/17 06:11:37;;;;;;;20.00;9.40;;;;;;;-0.24;91.93;97989.64;108133;1273;70905;-68
2021/12/17 06:14:15;;;;;;;115.50;23.30;;;;;;;-0.22;91.84;97995.10;108266;1267;68746;-70
2021/12/17 06:16:44;;;;;;;80.80;21.70;;;;;;;-0.26;91.69;97993.95;108067;1272;68678;-68
2021/12/17 06:19:19;;;;;;;55.30;17.90;;;;;;;-0.30;91.63;97991.81;108089;1273;59706;-73
2021/12/17 06:21:49;;;;;;;40.30;13.50;;;;;;;-0.32;91.64;97990.85;108246;1272;59639;-69
2021/12/17 06:24:18;;;;;;;22.50;10.70;;;;;;;-0.30;91.65;97992.86;108087;1272;70552;-70
2021/12/17 06:26:47;;;;;;;16.90;8.50;;;;;;;-0.27;91.58;97992.61;108090;1269;68717;-70
2021/12/17 06:29:16;;;;;;;19.80;10.10;;;;;;;-0.25;91.47;97992.40;108065;1272;68896;-68
2021/12/17 06:31:47;;;;;;;18.10;8.70;;;;;;;-0.21;91.40;97996.10;108178;1272;59828;-73
2021/12/17 06:34:16;;;;;;;19.90;10.50;;;;;;;-0.18;91.25;97994.83;108301;1269;59646;-72
2021/12/17 06:36:45;;;;;;;18.90;9.60;;;;;;;-0.15;91.17;97994.60;108020;1273;71693;-71
2021/12/17 06:39:14;;;;;;;17.10;9.50;;;;;;;-0.11;91.10;97991.26;108287;1268;68731;-71
2021/12/17 06:41:43;;;;;;;24.60;12.10;;;;;;;-0.08;90.90;97992.75;108138;1272;69508;-73
2021/12/17 06:44:15;;;;;;;20.10;10.70;;;;;;;-0.07;90.92;97994.59;108149;1272;59854;-73
2021/12/17 06:47:05;;;;;;;9.80;5.60;;;;;;;-0.03;90.90;97997.09;108088;1269;59693;-75
2021/12/17 07:10:46;;;;;;;21.60;11.30;;;;;;;0.21;90.09;97985.77;108048;1273;69610;-70
2021/12/17 07:31:38;;;;;;;19.10;10.30;;;;;;;0.50;89.07;97965.89;108102;1272;59701;-71
2021/12/17 07:35:55;;;;;;;18.10;9.90;;;;;;;0.63;88.62;97973.48;107999;1272;68016;-72
2021/12/17 07:41:18;;;;;;;23.10;12.20;;;;;;;0.74;87.52;97961.72;108009;1272;59751;-72
2021/12/17 07:43:59;;;;;;;19.60;10.60;;;;;;;0.79;87.61;97965.02;107983;1272;59685;-73
2021/12/17 07:46:39;;;;;;;17.70;11.00;;;;;;;0.84;87.56;97965.58;108108;1272;72165;-72
2021/12/17 07:49:08;;;;;;;24.70;12.00;;;;;;;0.85;87.01;97970.55;108094;1272;68635;-74
2021/12/17 07:51:37;;;;;;;18.70;10.10;;;;;;;0.83;86.68;97969.38;108068;1272;69505;-72
2021/12/17 07:54:09;;;;;;;26.10;14.10;;;;;;;0.81;86.67;97970.30;108002;1274;59779;-75
2021/12/17 07:56:38;;;;;;;23.20;11.40;;;;;;;0.74;86.48;97971.50;108108;1272;59683;-75
2021/12/17 07:59:19;;;;;;;22.20;13.00;;;;;;;0.66;86.51;97973.23;108138;1272;71537;-75
2021/12/17 08:01:48;;;;;;;32.80;16.50;;;;;;;0.62;86.96;97979.86;108148;1273;68304;-72
2021/12/17 08:04:18;;;;;;;33.00;14.20;;;;;;;0.54;87.32;97981.94;107955;1272;69468;-69
2021/12/17 08:07:16;;;;;;;37.70;18.20;;;;;;;0.51;87.70;97982.70;107997;1272;59697;-72
2021/12/17 08:09:46;;;;;;;35.30;18.10;;;;;;;0.50;87.79;97983.04;108083;1272;59633;-74
2021/12/17 08:12:17;;;;;;;31.80;17.20;;;;;;;0.49;87.93;97986.15;108066;1272;71705;-72
2021/12/17 08:14:52;;;;;;;32.90;16.10;;;;;;;0.49;87.96;97984.45;108145;1272;67964;-70
2021/12/17 08:17:45;;;;;;;;;;;;;;;0.48;88.24;97982.22;108190;1269;68919;-73
2021/12/17 08:29:23;;;;;;;21.90;11.40;;;;;;;0.74;87.97;97978.17;107676;1278;68745;-75
2021/12/17 08:31:45;;;;;;;25.10;13.00;;;;;;;0.86;87.88;97973.59;108274;1269;68771;-74
2021/12/17 08:34:15;;;;;;;30.20;18.30;;;;;;;0.95;87.76;97969.92;107934;1272;59757;-75
2021/12/17 08:36:45;;;;;;;26.20;16.80;;;;;;;1.06;87.43;97970.34;108283;1269;59696;-75
2021/12/17 08:39:15;;;;;;;31.10;19.20;;;;;;;1.15;87.03;97966.52;108282;1269;71371;-76
2021/12/17 08:41:51;;;;;;;27.80;15.10;;;;;;;1.22;86.38;97961.00;108321;1269;67650;-74
2021/12/17 08:44:24;;;;;;;26.20;16.50;;;;;;;1.28;86.07;97959.46;108066;1272;69778;-70
2021/12/17 08:47:13;;;;;;;33.60;20.70;;;;;;;1.35;85.63;97960.66;108274;1269;59760;-71
2021/12/17 08:49:43;;;;;;;25.20;14.70;;;;;;;1.37;84.76;97960.42;108318;1269;59636;-69
2021/12/17 08:52:17;;;;;;;28.50;17.40;;;;;;;1.35;84.15;97957.73;108279;1269;71681;-68
2021/12/17 08:54:46;;;;;;;24.30;14.20;;;;;;;1.28;84.12;97949.84;108134;1272;67897;-69
2021/12/17 08:57:15;;;;;;;32.60;19.40;;;;;;;1.23;84.10;97949.13;108228;1269;69528;-73
2021/12/17 08:59:44;;;;;;;27.50;15.80;;;;;;;1.21;84.60;97950.02;108238;1269;59763;-74
2021/12/17 09:02:14;;;;;;;34.10;19.60;;;;;;;1.30;84.72;97947.73;108262;1269;59684;-71
2021/12/17 09:04:49;;;;;;;33.30;19.40;;;;;;;1.33;84.25;97944.38;108258;1269;71752;-75
2021/12/17 09:07:18;;;;;;;35.60;18.70;;;;;;;1.30;83.98;97945.32;108286;1269;68647;-73
2021/12/17 09:09:49;;;;;;;24.30;13.70;;;;;;;1.32;84.21;97944.92;108248;1270;69909;-72
2021/12/17 09:12:23;;;;;;;36.40;19.80;;;;;;;1.38;83.96;97942.00;108113;1272;59640;-71
2021/12/17 09:14:55;;;;;;;26.40;14.00;;;;;;;1.41;83.62;97932.31;108284;1269;59688;-73
2021/12/17 09:17:48;;;;;;;31.10;18.60;;;;;;;1.57;84.12;97921.73;107972;1272;71192;-72
2021/12/17 09:20:21;;;;;;;24.20;13.90;;;;;;;1.81;84.34;97918.62;108191;1270;68724;-70
2021/12/17 09:22:53;;;;;;;24.50;13.90;;;;;;;2.09;83.57;97915.70;108302;1269;68805;-68
2021/12/17 09:25:22;;;;;;;22.50;14.10;;;;;;;2.42;83.21;97914.52;108259;1269;59780;-71
2021/12/17 09:27:55;;;;;;;24.00;14.10;;;;;;;2.76;81.80;97913.89;108130;1269;59701;-69
2021/12/17 09:30:47;;;;;;;28.90;15.90;;;;;;;3.08;80.42;97905.58;108141;1272;71604;-70
2021/12/17 09:33:16;;;;;;;24.80;14.50;;;;;;;3.50;79.31;97897.86;108181;1269;68716;-74
2021/12/17 09:35:45;;;;;;;25.30;15.90;;;;;;;3.82;78.16;97893.05;108103;1272;69442;-70
2021/12/17 09:38:14;;;;;;;28.80;17.40;;;;;;;4.27;77.03;97892.88;108088;1272;59703;-74
2021/12/17 09:40:43;;;;;;;28.30;15.10;;;;;;;4.52;75.81;97890.64;108089;1272;59780;-70
2021/12/17 09:43:15;;;;;;;29.00;17.50;;;;;;;4.95;75.30;97886.63;108163;1273;70826;-70
2021/12/17 09:45:44;;;;;;;25.00;14.60;;;;;;;5.80;72.64;97884.05;108247;1269;68731;-69
2021/12/17 09:48:14;;;;;;;25.40;17.00;;;;;;;6.65;70.04;97882.05;108240;1269;69561;-70
2021/12/17 09:50:43;;;;;;;;;;;;;;;7.56;65.43;97878.30;108290;1269;59753;-71
2021/12/17 09:53:13;;;;;;;24.40;15.20;;;;;;;8.23;60.11;97875.84;108204;1272;59686;-73
2021/12/17 09:55:42;;;;;;;26.60;16.10;;;;;;;8.43;63.01;97874.05;108116;1272;71956;-70
2021/12/17 09:58:11;;;;;;;26.40;16.50;;;;;;;8.42;63.59;97869.95;108188;1272;68670;-72
2021/12/17 10:00:40;;;;;;;27.00;15.50;;;;;;;8.33;62.53;97870.09;108170;1269;69459;-70
2021/12/17 10:03:09;;;;;;;55.00;35.30;;;;;;;7.99;61.97;97863.09;108090;1272;59757;-73
2021/12/17 10:05:40;;;;;;;68.40;37.30;;;;;;;7.57;63.24;97857.58;108122;1272;59725;-72
2021/12/17 10:08:16;;;;;;;90.70;50.50;;;;;;;7.31;62.69;97859.30;108097;1272;71746;-72
2021/12/17 10:10:57;;;;;;;76.30;44.20;;;;;;;7.42;62.61;97854.08;108247;1269;67556;-69
2021/12/17 10:13:34;;;;;;;84.80;51.90;;;;;;;7.44;62.98;97852.02;108284;1269;69110;-73
2021/12/17 10:16:07;;;;;;;48.30;28.60;;;;;;;7.14;63.12;97855.55;108308;1269;59735;-71
2021/12/17 10:18:42;;;;;;;40.60;25.10;;;;;;;6.78;63.57;97851.34;108266;1269;59637;-72
2021/12/17 10:21:19;;;;;;;55.00;33.70;;;;;;;6.46;64.90;97847.69;108352;1269;71080;-73
2021/12/17 10:23:51;;;;;;;27.00;16.50;;;;;;;6.04;64.27;97848.34;108258;1269;69219;-73
2021/12/17 10:26:22;;;;;;;42.90;25.60;;;;;;;5.84;65.51;97847.41;108327;1269;68767;-72
2021/12/17 10:28:53;;;;;;;;;;;;;;;5.53;65.72;97845.69;108287;1269;59709;-71
2021/12/17 10:31:25;;;;;;;38.60;23.10;;;;;;;5.15;66.50;97850.83;108314;1269;59709;-70
2021/12/17 10:33:59;;;;;;;27.90;19.20;;;;;;;4.78;67.93;97853.66;108284;1269;71604;-70
2021/12/17 10:36:36;;;;;;;24.50;16.80;;;;;;;4.55;68.86;97857.57;108259;1269;68732;-73
2021/12/17 10:39:26;;;;;;;38.90;25.30;;;;;;;4.05;70.06;97855.27;108230;1269;69606;-74
2021/12/17 10:41:55;;;;;;;27.50;16.70;;;;;;;3.73;71.43;97849.96;108288;1269;59706;-72
2021/12/17 10:44:24;;;;;;;30.10;18.60;;;;;;;3.54;72.21;97843.60;108293;1269;59726;-73
2021/12/17 10:47:19;;;;;;;36.90;24.20;;;;;;;3.35;72.62;97839.16;108254;1269;72192;-74
2021/12/17 10:49:57;;;;;;;28.00;17.50;;;;;;;3.18;73.27;97836.66;108303;1269;68316;-70
2021/12/17 10:52:41;;;;;;;23.20;14.50;;;;;;;3.05;73.78;97831.11;108111;1269;69600;-73
2021/12/17 10:55:16;;;;;;;23.00;14.70;;;;;;;3.06;74.02;97827.48;108289;1269;59688;-72
2021/12/17 10:57:49;;;;;;;24.10;15.10;;;;;;;3.14;73.69;97825.98;108286;1269;59739;-71
2021/12/17 11:00:20;;;;;;;19.70;13.60;;;;;;;3.20;73.65;97820.42;108083;1272;72130;-74
2021/12/17 11:02:51;;;;;;;23.10;15.10;;;;;;;3.24;73.62;97816.65;108241;1269;68755;-73
2021/12/17 11:05:22;;;;;;;20.10;12.80;;;;;;;3.27;73.45;97817.23;108267;1269;69404;-74
2021/12/17 11:07:52;;;;;;;31.20;20.00;;;;;;;3.30;73.82;97819.69;108252;1269;59680;-74
2021/12/17 11:10:31;;;;;;;25.80;16.60;;;;;;;3.29;73.71;97815.42;108295;1269;59739;-71
2021/12/17 11:13:00;;;;;;;31.40;19.70;;;;;;;3.32;73.84;97815.84;108232;1269;71587;-72
2021/12/17 11:15:30;;;;;;;28.90;19.80;;;;;;;3.29;73.87;97818.02;108278;1269;68424;-72
2021/12/17 11:18:03;;;;;;;31.60;20.90;;;;;;;3.26;74.35;97822.94;108325;1269;69519;-72
2021/12/17 11:20:38;;;;;;;26.90;17.30;;;;;;;3.22;74.01;97825.86;108273;1269;59677;-70
2021/12/17 11:23:13;;;;;;;26.50;18.10;;;;;;;3.06;74.10;97827.80;108326;1269;59684;-74
2021/12/17 11:25:46;;;;;;;24.30;17.90;;;;;;;2.93;74.42;97823.44;108309;1269;72152;-72
2021/12/17 11:28:15;;;;;;;20.70;14.50;;;;;;;2.87;75.37;97823.16;108323;1269;68772;-73
2021/12/17 11:30:47;;;;;;;68.30;41.70;;;;;;;2.90;75.48;97820.83;108273;1269;68762;-72
2021/12/17 11:33:17;;;;;;;31.00;19.80;;;;;;;2.90;75.13;97822.18;108153;1272;59931;-70
2021/12/17 11:35:48;;;;;;;25.60;17.00;;;;;;;2.90;74.87;97822.70;108257;1269;59659;-71
2021/12/17 11:38:33;;;;;;;29.50;19.10;;;;;;;2.91;75.24;97821.63;108283;1269;72038;-73
2021/12/17 11:41:11;;;;;;;28.20;18.20;;;;;;;2.90;75.43;97822.02;108248;1270;67845;-70
2021/12/17 11:43:51;;;;;;;19.70;12.10;;;;;;;2.90;75.57;97819.10;108241;1269;69854;-70
2021/12/17 11:46:38;;;;;;;25.70;16.20;;;;;;;2.91;75.00;97813.19;108337;1269;59766;-73
2021/12/17 11:49:15;;;;;;;33.50;24.00;;;;;;;2.93;75.24;97812.94;108424;1269;59713;-73
2021/12/17 11:51:54;;;;;;;22.20;14.10;;;;;;;2.95;75.32;97814.61;108326;1269;72177;-73
2021/12/17 11:54:33;;;;;;;24.70;16.00;;;;;;;3.01;75.24;97816.11;108319;1269;67936;-71
2021/12/17 11:57:08;;;;;;;26.50;17.50;;;;;;;3.03;75.10;97816.00;108288;1271;68709;-71
2021/12/17 11:59:40;;;;;;;22.80;15.30;;;;;;;3.01;74.50;97815.92;108301;1269;59738;-71
2021/12/17 12:02:22;;;;;;;26.40;18.10;;;;;;;3.01;74.61;97814.73;108134;1273;59697;-70
2021/12/17 12:04:57;;;;;;;26.20;16.80;;;;;;;3.02;75.40;97812.45;108313;1269;70436;-71
2021/12/17 12:07:26;;;;;;;20.90;15.20;;;;;;;3.06;74.99;97810.58;108323;1269;68009;-69
2021/12/17 12:09:58;;;;;;;25.70;17.30;;;;;;;3.06;74.92;97810.25;108277;1269;68647;-70
2021/12/17 12:12:41;;;;;;;25.80;17.30;;;;;;;3.12;74.59;97808.64;108349;1269;59757;-70
2021/12/17 12:15:27;;;;;;;22.50;15.60;;;;;;;3.23;75.13;97809.09;108311;1269;59726;-73
2021/12/17 12:18:03;;;;;;;20.70;13.50;;;;;;;3.40;74.74;97802.11;108059;1272;72146;-73
2021/12/17 12:20:41;;;;;;;22.90;14.60;;;;;;;3.55;74.61;97803.75;108165;1272;67960;-74
2021/12/17 12:23:22;;;;;;;24.40;16.10;;;;;;;3.72;72.90;97803.45;108191;1272;69502;-73
2021/12/17 12:26:11;;;;;;;15.60;11.90;;;;;;;3.95;73.55;97802.05;108287;1269;59683;-73
2021/12/17 12:28:56;;;;;;;23.70;15.10;;;;;;;4.43;70.80;97798.34;108265;1269;59694;-74
2021/12/17 12:31:32;;;;;;;22.30;16.60;;;;;;;4.59;70.18;97792.15;108309;1269;70701;-74
2021/12/17 12:34:00;;;;;;;23.00;15.70;;;;;;;4.62;71.17;97790.63;108316;1269;69303;-73
2021/12/17 12:36:49;;;;;;;25.10;17.60;;;;;;;4.55;70.02;97784.86;108271;1269;69550;-71
2021/12/17 12:39:30;;;;;;;27.70;18.90;;;;;;;4.49;70.34;97780.31;108294;1269;59840;-73
2021/12/17 12:42:12;;;;;;;26.70;16.60;;;;;;;4.38;69.59;97779.21;108271;1269;59710;-73
2021/12/17 12:44:44;;;;;;;24.70;16.80;;;;;;;4.28;70.24;97783.42;108209;1272;72626;-73
2021/12/17 12:47:14;;;;;;;23.00;14.40;;;;;;;4.21;70.28;97781.66;108184;1269;68198;-74
2021/12/17 12:49:45;;;;;;;20.60;13.90;;;;;;;4.15;70.77;97780.86;108148;1272;69492;-74
2021/12/17 12:52:31;;;;;;;20.10;13.70;;;;;;;4.16;71.94;97781.34;108113;1270;59693;-74
2021/12/17 12:55:11;;;;;;;17.70;11.80;;;;;;;4.16;72.14;97782.38;108155;1272;59706;-74
2021/12/17 12:57:43;;;;;;;25.20;16.90;;;;;;;4.10;71.60;97779.69;108083;1272;71594;-74
2021/12/17 13:00:24;;;;;;;29.00;19.60;;;;;;;4.00;71.75;97781.11;108241;1272;69073;-74
2021/12/17 13:03:02;;;;;;;30.20;20.20;;;;;;;3.86;72.45;97784.63;108300;1269;69415;-74
2021/12/17 13:05:40;;;;;;;30.20;20.30;;;;;;;3.72;72.93;97781.04;108218;1270;59764;-75
2021/12/17 13:08:15;;;;;;;36.50;22.90;;;;;;;3.64;73.34;97781.02;108288;1269;59662;-74
2021/12/17 13:10:49;;;;;;;23.20;16.30;;;;;;;3.64;73.80;97783.95;108321;1269;70544;-74
2021/12/17 13:16:35;;;;;;;35.30;22.70;;;;;;;3.91;73.02;97783.89;108233;1269;67818;-73
2021/12/17 13:24:25;;;;;;;27.50;19.10;;;;;;;3.68;73.84;97779.98;108301;1268;70941;-72
2021/12/17 13:26:55;;;;;;;26.50;17.50;;;;;;;3.68;73.93;97776.39;108248;1269;69226;-73
2021/12/17 13:29:30;;;;;;;;;;;;;;;3.64;73.83;97772.41;108137;1271;68641;-71
2021/12/17 13:32:13;;;;;;;31.00;21.50;;;;;;;3.44;74.30;97770.77;108111;1271;59742;-70
2021/12/17 13:34:56;;;;;;;29.20;20.00;;;;;;;3.33;74.57;97767.91;108174;1269;59731;-74
2021/12/17 13:37:34;;;;;;;25.40;16.30;;;;;;;3.26;74.82;97772.29;108152;1272;70756;-71
2021/12/17 13:40:05;;;;;;;22.70;14.60;;;;;;;3.17;75.24;97771.09;108292;1269;68807;-74
2021/12/17 13:42:47;;;;;;;26.60;18.60;;;;;;;3.03;76.04;97771.96;108302;1269;69527;-73
2021/12/17 13:45:23;;;;;;;22.70;14.50;;;;;;;2.82;76.75;97778.75;108271;1269;59709;-71
2021/12/17 13:47:56;;;;;;;28.90;18.40;;;;;;;2.72;76.61;97777.71;108286;1269;59682;-71
2021/12/17 13:50:41;;;;;;;24.40;14.70;;;;;;;2.52;78.20;97777.04;108309;1269;70810;-73
2021/12/17 13:53:15;;;;;;;33.40;22.40;;;;;;;2.37;78.31;97783.75;108181;1272;68646;-74
2021/12/17 13:56:04;;;;;;;31.90;21.70;;;;;;;2.16;79.41;97781.04;108048;1272;69481;-73
2021/12/17 13:58:35;;;;;;;39.30;24.90;;;;;;;1.98;80.00;97786.60;108183;1269;59625;-72
2021/12/17 14:01:05;;;;;;;34.70;23.40;;;;;;;1.88;80.39;97783.66;108288;1270;59774;-74
2021/12/17 14:03:38;;;;;;;33.80;20.50;;;;;;;1.80;80.98;97782.54;108288;1269;71671;-72
2021/12/17 14:06:18;;;;;;;34.80;21.80;;;;;;;1.69;81.82;97777.90;108172;1272;68635;-71
2021/12/17 14:08:47;;;;;;;30.60;19.70;;;;;;;1.64;81.11;97779.62;108089;1272;69406;-70
2021/12/17 14:11:28;;;;;;;26.10;17.20;;;;;;;1.62;81.70;97776.75;108166;1269;59773;-73
2021/12/17 14:14:22;;;;;;;34.90;21.00;;;;;;;1.58;81.92;97776.02;108305;1269;59713;-73
2021/12/17 14:17:00;;;;;;;46.90;28.60;;;;;;;1.53;82.18;97780.61;108195;1272;70907;-70
2021/12/17 14:19:43;;;;;;;47.20;30.30;;;;;;;1.47;82.50;97780.98;108119;1271;68633;-70
2021/12/17 14:22:27;;;;;;;37.90;24.70;;;;;;;1.43;82.47;97779.23;108264;1269;69577;-69
2021/12/17 14:24:58;;;;;;;30.90;20.50;;;;;;;1.41;81.85;97783.92;108276;1269;59697;-72
2021/12/17 14:27:45;;;;;;;33.20;23.90;;;;;;;1.39;81.75;97779.86;108279;1269;59662;-70
2021/12/17 14:30:15;;;;;;;37.60;23.90;;;;;;;1.33;81.80;97778.64;108324;1269;71661;-70
2021/12/17 14:32:46;;;;;;;45.60;28.70;;;;;;;1.27;81.98;97779.17;108317;1269;68552;-70
2021/12/17 14:35:35;;;;;;;41.00;26.00;;;;;;;1.24;81.52;97779.80;108280;1269;68803;-71
2021/12/17 14:38:04;;;;;;;43.30;26.80;;;;;;;1.18;82.08;97781.02;108285;1269;59752;-70
2021/12/17 14:40:55;;;;;;;34.50;23.00;;;;;;;1.13;82.15;97780.30;108247;1269;59680;-75
2021/12/17 14:43:51;;;;;;;45.70;26.90;;;;;;;1.09;81.76;97780.94;108085;1272;71579;-73
2021/12/17 14:46:27;;;;;;;24.10;15.00;;;;;;;1.03;82.48;97781.11;108308;1269;68792;-74
2021/12/17 15:00:52;;;;;;;42.70;27.10;;;;;;;0.88;83.34;97793.70;108094;1270;68179;-71
2021/12/17 15:03:41;;;;;;;33.30;20.50;;;;;;;0.84;83.35;97793.29;108061;1272;69452;-69
2021/12/17 15:06:13;;;;;;;24.70;14.70;;;;;;;0.84;82.81;97792.96;108139;1272;58920;-69
2021/12/17 15:08:43;;;;;;;40.10;25.40;;;;;;;0.86;82.35;97789.83;108141;1272;59763;-69
2021/12/17 15:11:27;;;;;;;40.50;22.10;;;;;;;0.86;82.83;97790.67;108128;1272;70934;-70
2021/12/17 15:13:56;;;;;;;33.60;19.70;;;;;;;0.86;81.94;97788.43;108216;1269;68062;-71
2021/12/17 15:16:26;;;;;;;37.20;22.20;;;;;;;0.88;82.08;97789.75;108208;1270;68650;-70
2021/12/17 15:18:55;;;;;;;51.40;34.20;;;;;;;0.89;82.20;97786.64;108109;1272;59763;-73